Time,TemperatureF,DewpointF,PressureIn,WindDirection,WindDirectionDegrees,WindSpeedMPH,WindSpeedGustMPH,Humidity,HourlyPrecipIn,Conditions,Clouds,dailyrainin,SoftwareType,DateUTC
2013-01-20 00:05:00,41.9,31.0,29.89,SW,215,4.0,8.0,65,0.00,,,0.00,weatherlink.com 1.10,2013-01-20 05:05:00,
2013-01-20 00:20:00,41.8,31.0,29.87,SSE,163,6.0,9.0,66,0.00,,,0.00,weatherlink.com 1.10,2013-01-20 05:20:00,
2013-01-20 00:30:00,41.5,31.4,29.86,SSW,209,4.0,5.0,67,0.00,,,0.00,Wunderground v.1.15,2013-01-20 05:30:00,
2013-01-20 00:36:00,41.3,31.0,29.86,SW,215,2.0,8.0,67,0.00,,,0.00,weatherlink.com 1.10,2013-01-20 05:36:00,
2013-01-20 00:50:00,41.1,31.0,29.85,SW,225,4.0,5.0,67,0.00,,,0.00,Wunderground v.1.15,2013-01-20 05:50:00,
2013-01-20 01:00:00,40.9,31.1,29.84,SSW,210,4.0,4.0,68,0.00,,,0.00,Wunderground v.1.15,2013-01-20 06:00:00,
2013-01-20 01:05:00,40.8,31.0,29.84,SW,217,2.0,6.0,68,0.00,,,0.00,weatherlink.com 1.10,2013-01-20 06:05:00,
2013-01-20 01:20:00,40.6,31.2,29.83,SSW,205,4.0,4.0,69,0.00,,,0.00,Wunderground v.1.15,2013-01-20 06:20:00,
2013-01-20 01:30:00,40.4,31.0,29.83,SSW,211,3.0,4.0,69,0.00,,,0.00,Wunderground v.1.15,2013-01-20 06:30:00,
2013-01-20 01:36:00,40.4,31.0,29.83,SSW,208,3.0,8.0,69,0.00,,,0.00,weatherlink.com 1.10,2013-01-20 06:36:00,
2013-01-20 01:50:00,40.4,31.4,29.83,SW,217,3.0,3.0,70,0.00,,,0.00,Wunderground v.1.15,2013-01-20 06:50:00,
2013-01-20 02:00:00,40.4,31.4,29.83,SSW,213,3.0,3.0,70,0.00,,,0.00,Wunderground v.1.15,2013-01-20 07:00:00,
2013-01-20 02:07:00,40.2,31.0,29.83,SW,223,0.0,6.0,70,0.00,,,0.00,weatherlink.com 1.10,2013-01-20 07:07:00,
2013-01-20 02:20:00,40.0,31.4,29.83,SW,228,2.0,2.0,71,0.00,,,0.00,Wunderground v.1.15,2013-01-20 07:20:00,
2013-01-20 02:30:00,39.7,31.1,29.82,SW,226,2.0,3.0,71,0.00,,,0.00,Wunderground v.1.15,2013-01-20 07:30:00,
2013-01-20 02:37:00,39.5,31.0,29.83,SW,232,2.0,5.0,72,0.00,,,0.00,weatherlink.com 1.10,2013-01-20 07:37:00,
2013-01-20 02:50:00,39.2,31.3,29.82,SW,222,2.0,3.0,73,0.00,,,0.00,Wunderground v.1.15,2013-01-20 07:50:00,
2013-01-20 03:00:00,39.1,31.2,29.82,WSW,238,2.0,3.0,73,0.00,,,0.00,Wunderground v.1.15,2013-01-20 08:00:00,
2013-01-20 03:07:00,39.0,31.0,29.81,SW,215,3.0,6.0,73,0.00,,,0.00,weatherlink.com 1.10,2013-01-20 08:07:00,
2013-01-20 03:20:00,38.8,31.2,29.81,SW,227,2.0,2.0,74,0.00,,,0.00,Wunderground v.1.15,2013-01-20 08:20:00,
2013-01-20 03:30:00,38.5,30.9,29.80,SW,227,1.0,2.0,74,0.00,,,0.00,Wunderground v.1.15,2013-01-20 08:30:00,
2013-01-20 03:38:00,38.4,31.0,29.80,SW,226,4.0,6.0,74,0.00,,,0.00,weatherlink.com 1.10,2013-01-20 08:38:00,
2013-01-20 03:50:00,38.3,31.1,29.80,SW,231,2.0,2.0,75,0.00,,,0.00,Wunderground v.1.15,2013-01-20 08:50:00,
2013-01-20 04:00:00,38.0,31.1,29.79,SW,226,1.0,3.0,76,0.00,,,0.00,Wunderground v.1.15,2013-01-20 09:00:00,
2013-01-20 04:08:00,38.0,31.0,29.79,SW,225,3.0,5.0,76,0.00,,,0.00,weatherlink.com 1.10,2013-01-20 09:08:00,
2013-01-20 04:20:00,37.8,30.9,29.77,SSW,211,2.0,3.0,76,0.00,,,0.00,Wunderground v.1.15,2013-01-20 09:20:00,
2013-01-20 04:30:00,37.7,30.8,29.77,SW,217,2.0,2.0,76,0.00,,,0.00,Wunderground v.1.15,2013-01-20 09:30:00,
2013-01-20 04:38:00,37.7,31.0,29.76,SW,228,2.0,4.0,76,0.00,,,0.00,weatherlink.com 1.10,2013-01-20 09:38:00,
2013-01-20 04:50:00,37.5,30.9,29.76,SW,227,1.0,2.0,77,0.00,,,0.00,Wunderground v.1.15,2013-01-20 09:50:00,
2013-01-20 05:00:00,37.3,30.7,29.75,SW,227,1.0,1.0,77,0.00,,,0.00,Wunderground v.1.15,2013-01-20 10:00:00,
2013-01-20 05:08:00,37.0,31.0,29.75,SW,227,2.0,3.0,78,0.00,,,0.00,weatherlink.com 1.10,2013-01-20 10:08:00,
2013-01-20 05:20:00,36.4,30.5,29.74,SSW,193,2.0,2.0,79,0.00,,,0.00,Wunderground v.1.15,2013-01-20 10:20:00,
2013-01-20 05:30:00,36.1,30.2,29.74,SSW,211,1.0,1.0,79,0.00,,,0.00,Wunderground v.1.15,2013-01-20 10:30:00,
2013-01-20 05:38:00,35.9,30.0,29.73,SSW,210,0.0,4.0,80,0.00,,,0.00,weatherlink.com 1.10,2013-01-20 10:38:00,
2013-01-20 05:50:00,35.7,30.4,29.73,SSW,200,2.0,2.0,81,0.00,,,0.00,Wunderground v.1.15,2013-01-20 10:50:00,
2013-01-20 06:00:00,35.6,30.3,29.73,SSW,202,1.0,1.0,81,0.00,,,0.00,Wunderground v.1.15,2013-01-20 11:00:00,
2013-01-20 06:08:00,35.6,30.0,29.73,SSW,202,0.0,4.0,81,0.00,,,0.00,weatherlink.com 1.10,2013-01-20 11:08:00,
2013-01-20 06:20:00,35.7,30.4,29.73,SSW,205,2.0,2.0,81,0.00,,,0.00,Wunderground v.1.15,2013-01-20 11:20:00,
2013-01-20 06:30:00,35.7,30.4,29.72,SSW,197,2.0,2.0,81,0.00,,,0.00,Wunderground v.1.15,2013-01-20 11:30:00,
2013-01-20 06:38:00,35.6,30.0,29.71,SSW,197,0.0,4.0,81,0.00,,,0.00,weatherlink.com 1.10,2013-01-20 11:38:00,
2013-01-20 06:50:00,35.5,30.2,29.72,SSW,209,2.0,3.0,81,0.00,,,0.00,Wunderground v.1.15,2013-01-20 11:50:00,
2013-01-20 07:00:00,35.7,30.4,29.72,SW,215,2.0,2.0,81,0.00,,,0.00,Wunderground v.1.15,2013-01-20 12:00:00,
2013-01-20 07:09:00,35.9,30.0,29.71,SSW,207,0.0,5.0,80,0.00,,,0.00,weatherlink.com 1.10,2013-01-20 12:09:00,
2013-01-20 07:20:00,35.9,30.3,29.71,SSW,207,1.0,2.0,80,0.00,,,0.00,Wunderground v.1.15,2013-01-20 12:20:00,
2013-01-20 07:30:00,35.9,30.3,29.71,SSW,212,2.0,3.0,80,0.00,,,0.00,Wunderground v.1.15,2013-01-20 12:30:00,
2013-01-20 07:39:00,36.2,30.0,29.71,SW,214,3.0,5.0,79,0.00,,,0.00,weatherlink.com 1.10,2013-01-20 12:39:00,
2013-01-20 07:50:00,36.5,30.6,29.71,SW,217,2.0,2.0,79,0.00,,,0.00,Wunderground v.1.15,2013-01-20 12:50:00,
2013-01-20 08:00:00,36.8,30.6,29.71,SSW,209,2.0,3.0,78,0.00,,,0.00,Wunderground v.1.15,2013-01-20 13:00:00,
2013-01-20 08:09:00,37.1,31.0,29.71,SW,218,1.0,5.0,78,0.00,,,0.00,weatherlink.com 1.10,2013-01-20 13:09:00,
2013-01-20 08:20:00,37.4,30.8,29.71,SW,214,2.0,3.0,77,0.00,,,0.00,Wunderground v.1.15,2013-01-20 13:20:00,
2013-01-20 08:30:00,37.9,31.0,29.72,SSW,193,3.0,5.0,76,0.00,,,0.00,Wunderground v.1.15,2013-01-20 13:30:00,
2013-01-20 08:39:00,38.5,31.0,29.72,SSW,198,3.0,8.0,74,0.00,,,0.00,weatherlink.com 1.10,2013-01-20 13:39:00,
2013-01-20 08:50:00,39.1,31.2,29.72,WSW,251,1.0,2.0,73,0.00,,,0.00,Wunderground v.1.15,2013-01-20 13:50:00,
2013-01-20 08:55:00,39.4,31.0,29.72,WSW,240,0.0,5.0,73,0.00,,,0.00,weatherlink.com 1.10,2013-01-20 13:55:00,
2013-01-20 09:00:00,39.8,31.2,29.72,SSW,209,2.0,5.0,71,0.00,,,0.00,Wunderground v.1.15,2013-01-20 14:00:00,
2013-01-20 09:09:00,40.4,31.0,29.72,SW,223,2.0,7.0,70,0.00,,,0.00,weatherlink.com 1.10,2013-01-20 14:09:00,
2013-01-20 09:20:00,41.0,31.6,29.72,SSW,196,2.0,2.0,69,0.00,,,0.00,Wunderground v.1.15,2013-01-20 14:20:00,
2013-01-20 09:25:00,41.4,32.0,29.72,South,186,0.0,6.0,69,0.00,,,0.00,weatherlink.com 1.10,2013-01-20 14:25:00,
2013-01-20 09:39:00,42.7,32.0,29.71,WSW,246,5.0,9.0,65,0.00,,,0.00,weatherlink.com 1.10,2013-01-20 14:39:00,
2013-01-20 09:50:00,44.0,31.8,29.71,SSW,211,3.0,4.0,62,0.00,,,0.00,Wunderground v.1.15,2013-01-20 14:50:00,
2013-01-20 09:55:00,44.6,31.0,29.71,WSW,240,5.0,8.0,60,0.00,,,0.00,weatherlink.com 1.10,2013-01-20 14:55:00,
2013-01-20 10:00:00,45.1,31.2,29.72,SW,219,4.0,4.0,58,0.00,,,0.00,Wunderground v.1.15,2013-01-20 15:00:00,
2013-01-20 10:10:00,45.7,31.8,29.71,SW,232,4.0,7.0,58,0.00,,,0.00,Wunderground v.1.15,2013-01-20 15:10:00,
2013-01-20 10:20:00,46.4,32.0,29.71,WSW,239,4.0,4.0,57,0.00,,,0.00,Wunderground v.1.15,2013-01-20 15:20:00,
2013-01-20 10:26:00,46.7,32.0,29.70,SW,229,2.0,5.0,57,0.00,,,0.00,weatherlink.com 1.10,2013-01-20 15:26:00,
2013-01-20 10:40:00,47.4,32.0,29.70,WNW,300,4.0,4.0,55,0.00,,,0.00,Wunderground v.1.15,2013-01-20 15:40:00,
2013-01-20 10:50:00,47.8,32.4,29.70,WSW,247,3.0,3.0,55,0.00,,,0.00,Wunderground v.1.15,2013-01-20 15:50:00,
2013-01-20 10:56:00,48.2,33.0,29.69,SW,223,5.0,8.0,56,0.00,,,0.00,weatherlink.com 1.10,2013-01-20 15:56:00,
2013-01-20 11:26:00,49.6,31.0,29.68,SW,229,7.0,15.0,50,0.00,,,0.00,weatherlink.com 1.10,2013-01-20 16:26:00,
2013-01-20 11:40:00,49.8,31.4,29.67,WSW,246,5.0,5.0,49,0.00,,,0.00,Wunderground v.1.15,2013-01-20 16:40:00,
2013-01-20 11:50:00,49.7,31.3,29.67,SSW,210,7.0,7.0,49,0.00,,,0.00,Wunderground v.1.15,2013-01-20 16:50:00,
2013-01-20 11:56:00,49.8,31.0,29.66,WNW,284,4.0,16.0,49,0.00,,,0.00,weatherlink.com 1.10,2013-01-20 16:56:00,
2013-01-20 12:10:00,49.8,31.4,29.66,SSW,209,7.0,7.0,49,0.00,,,0.00,Wunderground v.1.15,2013-01-20 17:10:00,
2013-01-20 12:20:00,49.9,31.5,29.65,WSW,240,6.0,6.0,49,0.00,,,0.00,Wunderground v.1.15,2013-01-20 17:20:00,
2013-01-20 12:27:00,50.0,31.0,29.65,NW,304,0.0,19.0,49,0.00,,,0.00,weatherlink.com 1.10,2013-01-20 17:27:00,
2013-01-20 12:40:00,49.6,30.7,29.66,SW,226,4.0,4.0,48,0.00,,,0.00,Wunderground v.1.15,2013-01-20 17:40:00,
2013-01-20 12:50:00,49.1,30.7,29.66,West,278,5.0,5.0,49,0.00,,,0.00,Wunderground v.1.15,2013-01-20 17:50:00,
2013-01-20 12:57:00,48.9,29.0,29.66,SW,226,4.0,15.0,47,0.00,,,0.00,weatherlink.com 1.10,2013-01-20 17:57:00,
2013-01-20 13:10:00,48.5,29.7,29.66,SW,230,5.0,5.0,48,0.00,,,0.00,Wunderground v.1.15,2013-01-20 18:10:00,
2013-01-20 13:20:00,49.1,30.2,29.66,West,275,4.0,4.0,48,0.00,,,0.00,Wunderground v.1.15,2013-01-20 18:20:00,
2013-01-20 13:27:00,49.8,31.0,29.66,NNW,344,4.0,18.0,48,0.00,,,0.00,weatherlink.com 1.10,2013-01-20 18:27:00,
2013-01-20 13:40:00,50.2,28.5,29.66,WNW,296,5.0,6.0,43,0.00,,,0.00,Wunderground v.1.15,2013-01-20 18:40:00,
2013-01-20 13:50:00,50.2,28.0,29.67,WSW,248,5.0,5.0,42,0.00,,,0.00,Wunderground v.1.15,2013-01-20 18:50:00,
2013-01-20 13:57:00,50.6,28.0,29.67,WNW,287,0.0,13.0,42,0.00,,,0.00,weatherlink.com 1.10,2013-01-20 18:57:00,
2013-01-20 14:10:00,51.3,25.9,29.68,West,279,3.0,11.0,37,0.00,,,0.00,Wunderground v.1.15,2013-01-20 19:10:00,
2013-01-20 14:20:00,50.9,21.3,29.68,North,355,6.0,6.0,31,0.00,,,0.00,Wunderground v.1.15,2013-01-20 19:20:00,
2013-01-20 14:25:00,50.3,19.2,29.69,NW,315,6.0,-999.0,29,0.00,,,0.00,Wunderground v.1.15,2013-01-20 19:25:00,
2013-01-20 14:28:00,50.4,21.0,29.69,West,263,4.0,24.0,31,0.00,,,0.00,weatherlink.com 1.10,2013-01-20 19:28:00,
2013-01-20 14:30:00,50.3,19.2,29.69,NW,315,6.0,-999.0,29,0.00,,,0.00,Wunderground v.1.15,2013-01-20 19:30:00,
2013-01-20 14:35:00,50.2,19.9,29.70,West,270,6.0,-999.0,30,0.00,,,0.00,Wunderground v.1.15,2013-01-20 19:35:00,
2013-01-20 14:40:00,50.2,19.9,29.70,West,270,6.0,-999.0,30,0.00,,,0.00,Wunderground v.1.15,2013-01-20 19:40:00,
2013-01-20 14:45:00,49.9,20.4,29.70,NW,315,5.0,-999.0,31,0.00,,,0.00,Wunderground v.1.15,2013-01-20 19:45:00,
2013-01-20 14:50:00,49.9,20.4,29.70,NW,315,5.0,-999.0,31,0.00,,,0.00,Wunderground v.1.15,2013-01-20 19:50:00,
2013-01-20 14:55:00,49.6,19.4,29.71,West,270,6.0,-999.0,30,0.00,,,0.00,Wunderground v.1.15,2013-01-20 19:55:00,
2013-01-20 15:00:00,49.6,19.4,29.71,West,270,6.0,-999.0,30,0.00,,,0.00,Wunderground v.1.15,2013-01-20 20:00:00,
2013-01-20 15:05:00,49.2,19.8,29.73,NW,315,6.0,-999.0,31,0.00,,,0.00,Wunderground v.1.15,2013-01-20 20:05:00,
2013-01-20 15:10:00,49.2,19.8,29.73,NW,315,6.0,-999.0,31,0.00,,,0.00,Wunderground v.1.15,2013-01-20 20:10:00,
2013-01-20 15:15:00,48.7,19.4,29.73,WNW,293,6.0,-999.0,31,0.00,,,0.00,Wunderground v.1.15,2013-01-20 20:15:00,
2013-01-20 15:20:00,48.7,19.4,29.73,WNW,293,6.0,-999.0,31,0.00,,,0.00,Wunderground v.1.15,2013-01-20 20:20:00,
2013-01-20 15:25:00,48.4,19.1,29.73,West,270,4.0,-999.0,31,0.00,,,0.00,Wunderground v.1.15,2013-01-20 20:25:00,
2013-01-20 15:30:00,48.4,19.1,29.73,West,270,4.0,-999.0,31,0.00,,,0.00,Wunderground v.1.15,2013-01-20 20:30:00,
2013-01-20 15:35:00,47.9,18.7,29.74,WNW,293,5.0,-999.0,31,0.00,,,0.00,Wunderground v.1.15,2013-01-20 20:35:00,
2013-01-20 15:40:00,47.9,18.7,29.74,WNW,293,5.0,-999.0,31,0.00,,,0.00,Wunderground v.1.15,2013-01-20 20:40:00,
2013-01-20 15:45:00,47.5,19.1,29.75,WSW,248,4.0,-999.0,32,0.00,,,0.00,Wunderground v.1.15,2013-01-20 20:45:00,
2013-01-20 15:50:00,47.5,19.1,29.75,WSW,248,4.0,-999.0,32,0.00,,,0.00,Wunderground v.1.15,2013-01-20 20:50:00,
2013-01-20 15:55:00,47.2,18.8,29.75,WNW,293,5.0,-999.0,32,0.00,,,0.00,Wunderground v.1.15,2013-01-20 20:55:00,
2013-01-20 16:00:00,47.2,18.8,29.75,WNW,293,5.0,-999.0,32,0.00,,,0.00,Wunderground v.1.15,2013-01-20 21:00:00,
2013-01-20 16:05:00,46.8,17.7,29.76,WNW,293,5.0,-999.0,31,0.00,,,0.00,Wunderground v.1.15,2013-01-20 21:05:00,
2013-01-20 16:10:00,46.8,17.7,29.76,WNW,293,5.0,-999.0,31,0.00,,,0.00,Wunderground v.1.15,2013-01-20 21:10:00,
2013-01-20 16:15:00,46.3,17.3,29.76,West,270,6.0,-999.0,31,0.00,,,0.00,Wunderground v.1.15,2013-01-20 21:15:00,
2013-01-20 16:20:00,46.3,17.3,29.76,West,270,6.0,-999.0,31,0.00,,,0.00,Wunderground v.1.15,2013-01-20 21:20:00,
2013-01-20 16:25:00,45.9,18.4,29.77,WNW,293,4.0,-999.0,33,0.00,,,0.00,Wunderground v.1.15,2013-01-20 21:25:00,
2013-01-20 16:30:00,45.9,18.4,29.77,WNW,293,4.0,-999.0,33,0.00,,,0.00,Wunderground v.1.15,2013-01-20 21:30:00,
2013-01-20 16:35:00,45.6,17.4,29.78,WNW,293,5.0,-999.0,32,0.00,,,0.00,Wunderground v.1.15,2013-01-20 21:35:00,
2013-01-20 16:40:00,45.6,17.4,29.78,WNW,293,5.0,-999.0,32,0.00,,,0.00,Wunderground v.1.15,2013-01-20 21:40:00,
2013-01-20 16:45:00,44.9,19.5,29.79,WNW,293,5.0,-999.0,36,0.00,,,0.00,Wunderground v.1.15,2013-01-20 21:45:00,
2013-01-20 16:50:00,44.9,19.5,29.79,WNW,293,5.0,-999.0,36,0.00,,,0.00,Wunderground v.1.15,2013-01-20 21:50:00,
2013-01-20 16:55:00,43.6,20.2,29.81,NNW,338,6.0,-999.0,39,0.00,,,0.00,Wunderground v.1.15,2013-01-20 21:55:00,
2013-01-20 17:00:00,43.6,20.2,29.81,NNW,338,6.0,-999.0,39,0.00,,,0.00,Wunderground v.1.15,2013-01-20 22:00:00,
2013-01-20 17:05:00,42.5,20.4,29.82,NNW,338,4.0,-999.0,41,0.00,,,0.00,Wunderground v.1.15,2013-01-20 22:05:00,
2013-01-20 17:10:00,42.5,20.4,29.82,NNW,338,4.0,-999.0,41,0.00,,,0.00,Wunderground v.1.15,2013-01-20 22:10:00,
2013-01-20 17:15:00,41.3,20.5,29.83,North,0,6.0,-999.0,43,0.00,,,0.00,Wunderground v.1.15,2013-01-20 22:15:00,
2013-01-20 17:20:00,41.3,20.5,29.83,North,0,6.0,-999.0,43,0.00,,,0.00,Wunderground v.1.15,2013-01-20 22:20:00,
2013-01-20 17:25:00,40.7,20.5,29.83,NNW,338,4.0,-999.0,44,0.00,,,0.00,Wunderground v.1.15,2013-01-20 22:25:00,
2013-01-20 17:30:00,40.7,20.5,29.83,NNW,338,4.0,-999.0,44,0.00,,,0.00,Wunderground v.1.15,2013-01-20 22:30:00,
2013-01-20 17:35:00,38.1,19.1,29.88,NNW,338,4.0,-999.0,46,0.00,,,0.00,Wunderground v.1.15,2013-01-20 22:35:00,
2013-01-20 17:40:00,-999.0,-99.9,0.00,North,-999,-999.0,-999.0,-999,0.00,,,0.00,weatherlink.com 1.10,2013-01-20 22:40:00,
2013-01-20 17:45:00,37.6,18.2,29.88,NNW,338,5.0,-999.0,45,0.00,,,0.00,Wunderground v.1.15,2013-01-20 22:45:00,
2013-01-20 17:50:00,39.8,20.2,29.85,WNW,302,3.0,3.0,45,0.00,,,0.00,Wunderground v.1.15,2013-01-20 22:50:00,
2013-01-20 17:55:00,39.5,20.0,29.86,North,360,3.0,12.0,45,0.00,,,0.00,weatherlink.com 1.10,2013-01-20 22:55:00,
2013-01-20 18:00:00,37.0,16.5,29.88,NNW,338,6.0,-999.0,43,0.00,,,0.00,Wunderground v.1.15,2013-01-20 23:00:00,
2013-01-20 18:05:00,36.6,15.6,29.89,NNW,338,4.0,-999.0,42,0.00,,,0.00,Wunderground v.1.15,2013-01-20 23:05:00,
2013-01-20 18:10:00,38.6,19.6,29.87,NNW,329,5.0,5.0,46,0.00,,,0.00,Wunderground v.1.15,2013-01-20 23:10:00,
2013-01-20 18:15:00,36.1,15.2,29.89,NNW,338,4.0,-999.0,42,0.00,,,0.00,Wunderground v.1.15,2013-01-20 23:15:00,
2013-01-20 18:20:00,38.1,19.1,29.88,West,261,4.0,4.0,46,0.00,,,0.00,Wunderground v.1.15,2013-01-20 23:20:00,
2013-01-20 18:25:00,37.8,19.0,29.88,WSW,252,7.0,13.0,46,0.00,,,0.00,weatherlink.com 1.10,2013-01-20 23:25:00,
2013-01-20 18:30:00,35.6,14.7,29.90,NW,315,3.0,-999.0,42,0.00,,,0.00,Wunderground v.1.15,2013-01-20 23:30:00,
2013-01-20 18:40:00,37.0,16.5,29.88,NW,321,6.0,6.0,43,0.00,,,0.00,Wunderground v.1.15,2013-01-20 23:40:00,
2013-01-20 18:50:00,36.5,15.6,29.89,NW,321,4.0,11.0,42,0.00,,,0.00,Wunderground v.1.15,2013-01-20 23:50:00,
2013-01-20 18:55:00,36.2,15.0,29.89,NNE,22,4.0,10.0,42,0.00,,,0.00,weatherlink.com 1.10,2013-01-20 23:55:00,
2013-01-20 19:10:00,35.6,15.0,29.91,NW,318,5.0,10.0,43,0.00,,,0.00,weatherlink.com 1.10,2013-01-21 00:10:00,
2013-01-20 19:26:00,35.1,14.0,29.91,North,5,4.0,12.0,42,0.00,,,0.00,weatherlink.com 1.10,2013-01-21 00:26:00,
2013-01-20 19:41:00,34.5,14.0,29.93,NNW,338,3.0,8.0,43,0.00,,,0.00,weatherlink.com 1.10,2013-01-21 00:41:00,
2013-01-20 19:50:00,34.1,13.9,29.94,NNW,345,3.0,5.0,43,0.00,,,0.00,Wunderground v.1.15,2013-01-21 00:50:00,
2013-01-20 19:57:00,33.9,13.0,29.94,NNW,334,6.0,10.0,43,0.00,,,0.00,weatherlink.com 1.10,2013-01-21 00:57:00,
2013-01-20 20:10:00,33.6,14.0,29.94,NW,326,4.0,4.0,44,0.00,,,0.00,Wunderground v.1.15,2013-01-21 01:10:00,
2013-01-20 20:20:00,33.3,13.7,29.94,WNW,294,5.0,5.0,44,0.00,,,0.00,Wunderground v.1.15,2013-01-21 01:20:00,
2013-01-20 20:26:00,33.1,14.0,29.95,WNW,298,8.0,11.0,45,0.00,,,0.00,weatherlink.com 1.10,2013-01-21 01:26:00,
2013-01-20 20:40:00,32.6,14.1,29.96,NNW,327,3.0,10.0,46,0.00,,,0.00,Wunderground v.1.15,2013-01-21 01:40:00,
2013-01-20 20:50:00,32.4,14.4,29.97,NW,321,4.0,4.0,47,0.00,,,0.00,Wunderground v.1.15,2013-01-21 01:50:00,
2013-01-20 20:57:00,32.2,14.0,29.97,NNW,343,3.0,20.0,48,0.00,,,0.00,weatherlink.com 1.10,2013-01-21 01:57:00,
2013-01-20 21:10:00,31.7,14.7,29.98,NW,325,3.0,3.0,49,0.00,,,0.00,Wunderground v.1.15,2013-01-21 02:10:00,
2013-01-20 21:20:00,31.4,14.4,29.98,NW,304,3.0,8.0,49,0.00,,,0.00,Wunderground v.1.15,2013-01-21 02:20:00,
2013-01-20 21:30:00,31.1,14.1,29.98,NNW,339,5.0,5.0,49,0.00,,,0.00,Wunderground v.1.15,2013-01-21 02:30:00,
2013-01-20 21:40:00,30.8,14.3,29.97,NW,325,4.0,4.0,50,0.00,,,0.00,Wunderground v.1.15,2013-01-21 02:40:00,
2013-01-20 21:50:00,30.6,14.1,29.98,WNW,283,4.0,10.0,50,0.00,,,0.00,Wunderground v.1.15,2013-01-21 02:50:00,
2013-01-20 21:57:00,30.5,14.0,29.98,NNW,342,5.0,16.0,51,0.00,,,0.00,weatherlink.com 1.10,2013-01-21 02:57:00,
2013-01-20 22:10:00,30.1,14.1,29.98,NNE,15,4.0,5.0,51,0.00,,,0.00,Wunderground v.1.15,2013-01-21 03:10:00,
2013-01-20 22:20:00,29.7,14.2,29.99,WNW,294,3.0,3.0,52,0.00,,,0.00,Wunderground v.1.15,2013-01-21 03:20:00,
2013-01-20 22:28:00,29.5,14.0,29.99,NW,322,3.0,8.0,52,0.00,,,0.00,weatherlink.com 1.10,2013-01-21 03:28:00,
2013-01-20 22:40:00,29.3,14.3,30.00,NW,315,3.0,3.0,53,0.00,,,0.00,Wunderground v.1.15,2013-01-21 03:40:00,
2013-01-20 22:50:00,29.1,12.8,30.00,NNW,346,5.0,14.0,50,0.00,,,0.00,Wunderground v.1.15,2013-01-21 03:50:00,
2013-01-20 22:57:00,28.9,12.0,30.00,NW,316,7.0,16.0,49,0.00,,,0.00,weatherlink.com 1.10,2013-01-21 03:57:00,
2013-01-20 23:10:00,28.7,11.9,30.00,NW,325,5.0,5.0,49,0.00,,,0.00,Wunderground v.1.15,2013-01-21 04:10:00,
2013-01-20 23:20:00,28.4,12.1,30.00,NNW,343,3.0,5.0,50,0.00,,,0.00,Wunderground v.1.15,2013-01-21 04:20:00,
2013-01-20 23:28:00,28.3,12.0,30.01,NNW,333,3.0,9.0,50,0.00,,,0.00,weatherlink.com 1.10,2013-01-21 04:28:00,
2013-01-20 23:40:00,28.1,12.3,30.00,NW,320,3.0,16.0,51,0.00,,,0.00,Wunderground v.1.15,2013-01-21 04:40:00,
2013-01-20 23:50:00,27.9,12.1,30.00,North,351,2.0,16.0,51,0.00,,,0.00,Wunderground v.1.15,2013-01-21 04:50:00,
2013-01-20 23:58:00,27.8,12.0,30.01,NW,322,0.0,9.0,51,0.00,,,0.00,weatherlink.com 1.10,2013-01-21 04:58:00,